Time;durP1;ratioP1;P1;durP2;ratioP2;P2;SDS_P1;SDS_P2;PMS_P1;PMS_P2;Temp;Humidity;BMP_temperature;BMP_pressure;BME280_temperature;BME280_humidity;BME280_pressure;Samples;Min_cycle;Max_cycle;Signal;HPM_P1;HPM_P2
2020/12/23 00:01:04;;;;;;;;;;;;;;;9.39;100.00;98893.50;5034795;28;20284;-85
2020/12/23 00:03:30;;;;;;;;;;;;;;;9.61;100.00;98891.16;5034442;28;19916;-84
2020/12/23 00:05:55;;;;;;;;;;;;;;;9.58;99.39;98883.56;5051244;28;19966;-85
2020/12/23 00:08:20;;;;;;;;;;;;;;;9.42;100.00;98875.47;5042487;28;19955;-85
2020/12/23 00:10:46;;;;;;;;;;;;;;;9.15;100.00;98877.91;5040402;28;19966;-85
2020/12/23 00:13:11;;;;;;;;;;;;;;;9.34;100.00;98872.25;5043665;28;19952;-85
2020/12/23 00:15:36;;;;;;;;;;;;;;;9.55;100.00;98875.91;5034458;28;19912;-85
2020/12/23 00:18:01;;;;;;;;;;;;;;;9.52;100.00;98876.84;5056889;28;19924;-85
2020/12/23 00:20:27;;;;;;;;;;;;;;;9.39;100.00;98860.94;5072669;28;19927;-85
2020/12/23 00:22:52;;;;;;;;;;;;;;;9.27;100.00;98855.34;5074327;28;19923;-85
2020/12/23 00:25:17;;;;;;;;;;;;;;;9.67;100.00;98844.72;5065917;28;19923;-85
2020/12/23 00:27:43;;;;;;;;;;;;;;;9.90;98.81;98846.56;5065504;28;20431;-85
2020/12/23 00:30:08;;;;;;;;;;;;;;;9.61;100.00;98845.72;5057865;28;20010;-85
2020/12/23 00:32:33;;;;;;;;;;;;;;;9.54;100.00;98844.22;5073721;28;20369;-85
2020/12/23 00:34:59;;;;;;;;;;;;;;;9.97;98.84;98848.03;5064796;28;19934;-85
2020/12/23 00:37:24;;;;;;;;;;;;;;;9.97;97.91;98842.91;5074317;28;19912;-85
2020/12/23 00:39:50;;;;;;;;;;;;;;;9.84;98.96;98833.88;5057164;28;20029;-85
2020/12/23 00:42:15;;;;;;;;;;;;;;;9.71;99.89;98830.00;5057419;28;20353;-86
2020/12/23 00:44:40;;;;;;;;;;;;;;;9.59;100.00;98821.78;5055104;28;19967;-85
2020/12/23 00:47:06;;;;;;;;;;;;;;;9.56;100.00;98821.91;5072311;28;20369;-86
2020/12/23 00:49:31;;;;;;;;;;;;;;;9.40;100.00;98805.25;5057079;28;19959;-86
2020/12/23 00:51:56;;;;;;;;;;;;;;;9.31;100.00;98785.81;5072475;28;19920;-85
2020/12/23 00:54:22;;;;;;;;;;;;;;;9.29;100.00;98785.00;5062754;28;20336;-85
2020/12/23 00:56:47;;;;;;;;;;;;;;;9.33;100.00;98788.34;5056077;28;19912;-85
2020/12/23 00:59:12;;;;;;;;;;;;;;;9.47;100.00;98801.59;5056177;28;19920;-85
2020/12/23 01:01:38;;;;;;;;;;;;;;;9.56;100.00;98801.31;5065050;28;19920;-85
2020/12/23 01:04:03;;;;;;;;;;;;;;;9.77;100.00;98804.94;5066763;28;19958;-85
2020/12/23 01:06:29;;;;;;;;;;;;;;;9.84;100.00;98805.59;5072393;28;19916;-85
2020/12/23 01:08:54;;;;;;;;;;;;;;;9.93;100.00;98805.28;5072996;28;19912;-85
2020/12/23 01:11:20;;;;;;;;;;;;;;;9.93;100.00;98807.88;5055890;28;19920;-85
2020/12/23 01:13:45;;;;;;;;;;;;;;;10.07;100.00;98801.44;5063355;28;20889;-85
2020/12/23 01:16:10;;;;;;;;;;;;;;;10.01;100.00;98805.91;5065585;28;20373;-85
2020/12/23 01:18:36;;;;;;;;;;;;;;;10.09;98.29;98808.22;5060769;28;19932;-85
2020/12/23 01:21:01;;;;;;;;;;;;;;;10.15;99.11;98809.72;5036663;28;20543;-85
2020/12/23 01:23:27;;;;;;;;;;;;;;;10.39;97.40;98814.06;5036494;28;19920;-85
2020/12/23 01:25:52;;;;;;;;;;;;;;;10.48;97.87;98807.78;5052330;28;19912;-85
2020/12/23 01:28:18;;;;;;;;;;;;;;;10.46;97.06;98810.41;5044389;28;19916;-85
2020/12/23 01:30:43;;;;;;;;;;;;;;;10.48;97.89;98817.25;5052737;28;19975;-85
2020/12/23 01:33:08;;;;;;;;;;;;;;;10.34;97.12;98825.44;5036838;28;19928;-85
2020/12/23 01:35:34;;;;;;;;;;;;;;;9.84;100.00;98821.84;5052566;28;19916;-85
2020/12/23 01:37:59;;;;;;;;;;;;;;;9.61;100.00;98822.59;5036369;28;19990;-85
2020/12/23 01:40:25;;;;;;;;;;;;;;;9.46;100.00;98825.63;5036303;28;19917;-85
2020/12/23 01:42:50;;;;;;;;;;;;;;;9.40;100.00;98836.09;5036466;28;20343;-85
2020/12/23 01:45:15;;;;;;;;;;;;;;;9.22;100.00;98832.34;5045045;28;19955;-85
2020/12/23 01:47:43;;;;;;;;;;;;;;;9.10;100.00;98833.53;5036034;28;20332;-85
2020/12/23 01:50:08;;;;;;;;;;;;;;;9.30;100.00;98837.25;5043759;28;19916;-85
2020/12/23 01:52:34;;;;;;;;;;;;;;;9.88;100.00;98838.03;5051894;28;19974;-85
2020/12/23 01:54:59;;;;;;;;;;;;;;;9.86;100.00;98834.69;5052730;28;19916;-84
2020/12/23 01:57:24;;;;;;;;;;;;;;;9.55;100.00;98840.75;5041885;28;19981;-85
2020/12/23 01:59:50;;;;;;;;;;;;;;;9.79;100.00;98843.47;5035583;28;19924;-85
2020/12/23 02:02:31;;;;;;;;;;;;;;;9.89;100.00;98844.88;5035772;28;19912;-85
2020/12/23 02:04:59;;;;;;;;;;;;;;;10.01;100.00;98848.78;5043540;28;19916;-85
2020/12/23 02:07:25;;;;;;;;;;;;;;;9.75;100.00;98845.28;5028734;28;19958;-85
2020/12/23 02:09:52;;;;;;;;;;;;;;;9.72;100.00;98847.13;5044090;28;19928;-86
2020/12/23 02:12:17;;;;;;;;;;;;;;;9.87;100.00;98840.66;5041738;28;19956;-85
2020/12/23 02:14:42;;;;;;;;;;;;;;;9.78;100.00;98836.63;5070715;28;19955;-86
2020/12/23 02:17:08;;;;;;;;;;;;;;;9.68;100.00;98841.25;5043920;28;20114;-85
2020/12/23 02:19:33;;;;;;;;;;;;;;;9.52;100.00;98846.00;5060386;28;19927;-86
2020/12/23 02:21:59;;;;;;;;;;;;;;;9.66;100.00;98843.00;5055062;28;20311;-86
2020/12/23 02:24:24;;;;;;;;;;;;;;;9.89;100.00;98846.59;5055372;28;19916;-85
2020/12/23 02:26:51;;;;;;;;;;;;;;;10.20;100.00;98843.88;5071750;28;20077;-86
2020/12/23 02:29:16;;;;;;;;;;;;;;;10.29;99.46;98843.63;5062210;28;19923;-85
2020/12/23 02:31:41;;;;;;;;;;;;;;;10.48;99.65;98841.25;5070658;28;19916;-86
2020/12/23 02:34:07;;;;;;;;;;;;;;;10.41;100.00;98838.03;5054986;28;20357;-85
2020/12/23 02:36:32;;;;;;;;;;;;;;;10.28;100.00;98836.72;5062432;28;19912;-85
2020/12/23 02:38:57;;;;;;;;;;;;;;;10.20;99.05;98831.00;5055184;28;19958;-85
2020/12/23 02:41:23;;;;;;;;;;;;;;;10.25;97.17;98836.84;5054762;28;19923;-86
2020/12/23 02:43:48;;;;;;;;;;;;;;;10.34;98.26;98836.56;5070343;28;20388;-86
2020/12/23 02:46:13;;;;;;;;;;;;;;;10.51;98.79;98835.16;5054973;28;19922;-86
2020/12/23 02:48:38;;;;;;;;;;;;;;;10.21;100.00;98845.56;5071984;28;19916;-85
2020/12/23 02:51:04;;;;;;;;;;;;;;;10.13;100.00;98837.25;5071244;28;19920;-85
2020/12/23 02:53:29;;;;;;;;;;;;;;;10.05;100.00;98835.75;5054960;28;20327;-86
2020/12/23 02:55:54;;;;;;;;;;;;;;;9.88;100.00;98839.78;5069791;28;19963;-85
2020/12/23 02:58:20;;;;;;;;;;;;;;;9.76;100.00;98834.13;5062508;28;20474;-84
2020/12/23 03:00:45;;;;;;;;;;;;;;;9.82;100.00;98833.09;5054247;28;19923;-84
2020/12/23 03:03:10;;;;;;;;;;;;;;;10.26;100.00;98829.09;5070244;28;20333;-85
2020/12/23 03:05:36;;;;;;;;;;;;;;;10.28;100.00;98826.44;5054824;28;20556;-85
2020/12/23 03:08:01;;;;;;;;;;;;;;;10.29;100.00;98817.88;5055142;28;19911;-85
2020/12/23 03:10:27;;;;;;;;;;;;;;;10.44;100.00;98812.19;5054958;28;19939;-85
2020/12/23 03:12:52;;;;;;;;;;;;;;;10.73;100.00;98817.22;5056140;28;20400;-85
2020/12/23 03:15:17;;;;;;;;;;;;;;;10.59;99.62;98805.66;5059064;28;19916;-85
2020/12/23 03:17:42;;;;;;;;;;;;;;;10.65;99.39;98805.47;5054855;28;20041;-85
2020/12/23 03:20:08;;;;;;;;;;;;;;;10.71;98.88;98799.25;5053732;28;19912;-85
2020/12/23 03:22:33;;;;;;;;;;;;;;;10.66;97.05;98811.44;5070383;28;19927;-85
2020/12/23 03:24:58;;;;;;;;;;;;;;;10.64;98.14;98808.09;5071250;28;20444;-85
2020/12/23 03:27:24;;;;;;;;;;;;;;;10.56;97.98;98802.34;5064034;28;19923;-87
2020/12/23 03:29:49;;;;;;;;;;;;;;;10.62;98.87;98800.41;5052412;28;19912;-86
2020/12/23 03:32:14;;;;;;;;;;;;;;;10.75;99.07;98803.38;5060669;28;19923;-87
2020/12/23 03:34:40;;;;;;;;;;;;;;;10.80;98.63;98798.91;5053385;28;20483;-86
2020/12/23 03:37:05;;;;;;;;;;;;;;;10.79;98.24;98794.66;5069927;28;19912;-87
2020/12/23 03:39:30;;;;;;;;;;;;;;;10.68;98.59;98804.50;5053393;28;20058;-87
2020/12/23 03:41:56;;;;;;;;;;;;;;;10.76;99.38;98794.75;5053239;28;19912;-86
2020/12/23 03:44:21;;;;;;;;;;;;;;;10.83;98.50;98793.66;5060174;28;19916;-85
2020/12/23 03:46:46;;;;;;;;;;;;;;;10.74;98.51;98799.16;5069854;28;19966;-85
2020/12/23 03:49:12;;;;;;;;;;;;;;;10.67;99.22;98793.38;5060187;28;19916;-86
2020/12/23 03:51:37;;;;;;;;;;;;;;;10.66;97.09;98783.13;5052592;28;19924;-87
2020/12/23 03:54:02;;;;;;;;;;;;;;;10.85;98.18;98785.84;5052950;28;19965;-86
2020/12/23 03:56:28;;;;;;;;;;;;;;;10.77;97.13;98783.56;5073207;28;20266;-87
2020/12/23 03:58:53;;;;;;;;;;;;;;;10.85;97.73;98781.53;5074162;28;19912;-86
2020/12/23 04:01:18;;;;;;;;;;;;;;;10.74;97.63;98778.53;5066776;28;19927;-88
2020/12/23 04:03:44;;;;;;;;;;;;;;;10.71;97.72;98773.47;5064684;28;20315;-86
2020/12/23 04:06:09;;;;;;;;;;;;;;;10.62;98.54;98777.22;5080530;28;19915;-87
2020/12/23 04:08:34;;;;;;;;;;;;;;;10.59;98.60;98776.50;5056666;28;20337;-85
2020/12/23 04:11:00;;;;;;;;;;;;;;;10.63;97.12;98775.50;5072939;28;20147;-86
2020/12/23 04:13:25;;;;;;;;;;;;;;;10.79;98.88;98776.63;5066704;28;19920;-87
2020/12/23 04:15:50;;;;;;;;;;;;;;;10.78;98.62;98774.09;5073074;28;20053;-87
2020/12/23 04:18:16;;;;;;;;;;;;;;;10.94;97.86;98780.38;5056844;28;19962;-87
2020/12/23 04:20:41;;;;;;;;;;;;;;;10.89;97.51;98777.97;5064724;28;19916;-87
2020/12/23 04:23:08;;;;;;;;;;;;;;;10.92;98.74;98795.03;5062592;28;19918;-86
2020/12/23 04:25:33;;;;;;;;;;;;;;;10.94;97.72;98779.53;5059550;28;19935;-87
2020/12/23 04:27:58;;;;;;;;;;;;;;;10.93;97.87;98777.88;5065464;28;20361;-87
2020/12/23 04:30:24;;;;;;;;;;;;;;;10.72;98.19;98769.16;5072461;28;19922;-87
2020/12/23 04:32:49;;;;;;;;;;;;;;;10.82;99.48;98766.22;5061536;28;19985;-87
2020/12/23 04:35:14;;;;;;;;;;;;;;;10.41;99.72;98771.09;5072772;28;20270;-86
2020/12/23 04:37:40;;;;;;;;;;;;;;;10.55;99.93;98756.91;5073060;28;19916;-86
2020/12/23 04:40:05;;;;;;;;;;;;;;;10.46;99.69;98764.06;5056541;28;19916;-87
2020/12/23 04:42:31;;;;;;;;;;;;;;;10.23;100.00;98758.84;5056379;28;19920;-87
2020/12/23 04:44:57;;;;;;;;;;;;;;;10.26;100.00;98751.00;5072505;28;19918;-87
2020/12/23 04:47:24;;;;;;;;;;;;;;;10.27;100.00;98752.72;5072886;28;19912;-87
2020/12/23 04:49:51;;;;;;;;;;;;;;;10.35;100.00;98763.59;5072872;28;20365;-87
2020/12/23 04:52:17;;;;;;;;;;;;;;;10.45;100.00;98764.97;5063022;28;20277;-88
2020/12/23 04:54:42;;;;;;;;;;;;;;;10.49;100.00;98770.00;5055924;28;19915;-86
2020/12/23 04:57:07;;;;;;;;;;;;;;;10.49;100.00;98767.41;5070790;28;19916;-87
2020/12/23 04:59:33;;;;;;;;;;;;;;;10.61;100.00;98761.84;5072206;28;20650;-84
2020/12/23 05:01:59;;;;;;;;;;;;;;;10.34;100.00;98771.38;5064532;28;19916;-85
2020/12/23 05:04:25;;;;;;;;;;;;;;;10.19;100.00;98775.28;5061695;28;19974;-87
2020/12/23 05:06:59;;;;;;;;;;;;;;;10.27;100.00;98778.44;5055389;28;19983;-87
2020/12/23 05:09:24;;;;;;;;;;;;;;;10.28;100.00;98769.81;5063664;28;20331;-87
2020/12/23 05:11:49;;;;;;;;;;;;;;;10.30;100.00;98762.91;5062564;28;19916;-86
2020/12/23 05:14:15;;;;;;;;;;;;;;;10.43;100.00;98764.16;5072593;28;19919;-86
2020/12/23 05:16:40;;;;;;;;;;;;;;;10.42;99.96;98761.63;5072113;28;19916;-87
2020/12/23 05:19:05;;;;;;;;;;;;;;;10.31;100.00;98756.03;5055227;28;20323;-87
2020/12/23 05:21:31;;;;;;;;;;;;;;;10.37;99.78;98753.25;5072723;28;19920;-88
2020/12/23 05:23:57;;;;;;;;;;;;;;;10.35;100.00;98748.16;5061017;28;20006;-87
2020/12/23 05:26:22;;;;;;;;;;;;;;;10.25;100.00;98749.34;5061058;28;19912;-87
2020/12/23 05:28:48;;;;;;;;;;;;;;;10.33;100.00;98752.53;5061350;28;19916;-86
2020/12/23 05:31:13;;;;;;;;;;;;;;;10.50;100.00;98748.53;5054957;28;19916;-85
2020/12/23 05:33:40;;;;;;;;;;;;;;;10.54;100.00;98756.06;5055168;28;20322;-86
2020/12/23 05:36:06;;;;;;;;;;;;;;;10.45;100.00;98754.66;5070609;28;19984;-87
2020/12/23 05:38:32;;;;;;;;;;;;;;;10.64;99.18;98751.44;5066459;28;19916;-86
2020/12/23 05:40:58;;;;;;;;;;;;;;;10.59;99.03;98753.34;5056141;28;19912;-86
2020/12/23 05:43:25;;;;;;;;;;;;;;;10.39;100.00;98747.16;5055466;28;20477;-86
2020/12/23 05:45:52;;;;;;;;;;;;;;;10.38;100.00;98750.63;5055414;28;20332;-85
2020/12/23 05:48:17;;;;;;;;;;;;;;;10.66;100.00;98747.06;5065442;28;20247;-86
2020/12/23 05:50:43;;;;;;;;;;;;;;;10.64;97.91;98741.13;5063000;28;19938;-85
2020/12/23 05:53:14;;;;;;;;;;;;;;;10.53;100.00;98738.09;5064111;28;19918;-86
2020/12/23 05:55:46;;;;;;;;;;;;;;;10.61;100.00;98741.25;5071882;28;19916;-86
2020/12/23 05:58:28;;;;;;;;;;;;;;;10.64;99.70;98735.97;5071849;28;19952;-87
2020/12/23 06:00:54;;;;;;;;;;;;;;;10.59;97.74;98731.00;5065106;28;19916;-86
2020/12/23 06:03:22;;;;;;;;;;;;;;;10.56;99.79;98723.38;5071978;28;19967;-87
2020/12/23 06:05:56;;;;;;;;;;;;;;;10.36;98.13;98724.09;5071032;28;20951;-86
2020/12/23 06:08:21;;;;;;;;;;;;;;;10.35;100.00;98713.84;5055176;28;19920;-86
2020/12/23 06:10:46;;;;;;;;;;;;;;;10.35;100.00;98709.53;5063075;28;19931;-86
2020/12/23 06:13:12;;;;;;;;;;;;;;;10.35;100.00;98712.09;5070847;28;19915;-87
2020/12/23 06:15:39;;;;;;;;;;;;;;;10.27;100.00;98706.38;5069812;28;19932;-86
2020/12/23 06:18:04;;;;;;;;;;;;;;;10.35;100.00;98717.25;5063939;28;19928;-86
2020/12/23 06:20:29;;;;;;;;;;;;;;;10.31;100.00;98713.13;5054763;28;19920;-86
2020/12/23 06:22:55;;;;;;;;;;;;;;;10.28;100.00;98708.03;5054267;28;19916;-87
2020/12/23 06:25:22;;;;;;;;;;;;;;;10.36;100.00;98708.66;5055130;28;19920;-86
2020/12/23 06:27:47;;;;;;;;;;;;;;;10.33;100.00;98705.34;5065104;28;19923;-86
2020/12/23 06:30:12;;;;;;;;;;;;;;;10.26;100.00;98707.25;5063995;28;19912;-86
2020/12/23 06:32:38;;;;;;;;;;;;;;;10.45;99.06;98700.59;5065999;28;19960;-87
2020/12/23 06:35:03;;;;;;;;;;;;;;;10.31;100.00;98702.84;5062216;28;19918;-87
2020/12/23 06:37:30;;;;;;;;;;;;;;;10.27;100.00;98698.66;5065408;28;19947;-87
2020/12/23 06:39:55;;;;;;;;;;;;;;;10.19;100.00;98703.22;5071524;28;19927;-87
2020/12/23 06:42:20;;;;;;;;;;;;;;;10.29;100.00;98703.78;5055329;28;20308;-87
2020/12/23 06:44:45;;;;;;;;;;;;;;;10.29;100.00;98706.38;5074369;28;20393;-87
2020/12/23 06:47:30;;;;;;;;;;;;;;;10.26;100.00;98704.69;5075230;28;19938;-88
2020/12/23 06:50:06;;;;;;;;;;;;;;;10.39;100.00;98703.38;5069893;28;19912;-86
2020/12/23 06:52:32;;;;;;;;;;;;;;;10.40;100.00;98691.34;5065072;28;19920;-87
2020/12/23 06:55:01;;;;;;;;;;;;;;;10.29;100.00;98702.06;5062931;28;19920;-87
2020/12/23 06:57:36;;;;;;;;;;;;;;;10.32;100.00;98707.06;5060867;28;19916;-87
2020/12/23 07:00:03;;;;;;;;;;;;;;;10.27;100.00;98698.66;5065343;28;19969;-87
2020/12/23 07:02:31;;;;;;;;;;;;;;;10.23;100.00;98694.50;5069906;28;19971;-87
2020/12/23 07:04:56;;;;;;;;;;;;;;;10.12;100.00;98700.03;5068334;28;19958;-87
2020/12/23 07:07:34;;;;;;;;;;;;;;;10.46;100.00;98697.13;5055187;28;19916;-87
2020/12/23 07:10:11;;;;;;;;;;;;;;;10.52;100.00;98700.38;5069585;28;19916;-87
2020/12/23 07:12:37;;;;;;;;;;;;;;;10.30;99.71;98695.16;5061391;28;19970;-86
2020/12/23 07:15:09;;;;;;;;;;;;;;;10.31;100.00;98691.69;5052850;28;19916;-86
2020/12/23 07:17:36;;;;;;;;;;;;;;;10.33;100.00;98700.19;5059634;28;19920;-86
2020/12/23 07:20:03;;;;;;;;;;;;;;;10.42;100.00;98689.56;5052807;28;20359;-85
2020/12/23 07:22:28;;;;;;;;;;;;;;;10.49;100.00;98691.03;5052378;28;20398;-84
2020/12/23 07:24:55;;;;;;;;;;;;;;;10.35;100.00;98704.38;5069084;28;19924;-85
2020/12/23 07:27:22;;;;;;;;;;;;;;;10.30;100.00;98696.00;5061482;28;19924;-85
2020/12/23 07:29:47;;;;;;;;;;;;;;;10.20;100.00;98694.63;5069144;28;19959;-85
2020/12/23 07:32:13;;;;;;;;;;;;;;;10.17;100.00;98694.72;5069870;28;19982;-84
2020/12/23 07:34:38;;;;;;;;;;;;;;;10.29;100.00;98699.47;5052841;28;19927;-84
2020/12/23 07:37:03;;;;;;;;;;;;;;;10.24;100.00;98701.31;5052081;28;20859;-85
2020/12/23 07:39:30;;;;;;;;;;;;;;;10.11;100.00;98700.94;5068957;28;19923;-84
2020/12/23 07:41:56;;;;;;;;;;;;;;;10.22;100.00;98692.84;5040437;28;20400;-84
2020/12/23 07:44:21;;;;;;;;;;;;;;;10.33;100.00;98701.06;5068561;28;19921;-84
2020/12/23 07:46:46;;;;;;;;;;;;;;;10.32;100.00;98699.34;5053318;28;19923;-84
2020/12/23 07:49:11;;;;;;;;;;;;;;;10.40;100.00;98699.94;5068857;28;20436;-83
2020/12/23 07:51:37;;;;;;;;;;;;;;;10.21;100.00;98696.28;5069708;28;19937;-83
2020/12/23 07:54:09;;;;;;;;;;;;;;;10.23;100.00;98694.50;5068930;28;20335;-83
2020/12/23 07:56:38;;;;;;;;;;;;;;;10.18;100.00;98699.00;5070609;28;19919;-84
2020/12/23 07:59:03;;;;;;;;;;;;;;;10.30;100.00;98702.88;5053461;28;19974;-84
2020/12/23 08:01:28;;;;;;;;;;;;;;;10.26;100.00;98700.41;5053271;28;19959;-84
2020/12/23 08:03:54;;;;;;;;;;;;;;;10.19;100.00;98703.22;5053009;28;19916;-84
2020/12/23 08:06:22;;;;;;;;;;;;;;;10.15;100.00;98715.38;5053471;28;20353;-84
2020/12/23 08:08:47;;;;;;;;;;;;;;;10.19;100.00;98710.94;5070387;28;20292;-84
2020/12/23 08:11:16;;;;;;;;;;;;;;;10.30;100.00;98701.16;5071282;28;19924;-85
2020/12/23 08:13:42;;;;;;;;;;;;;;;10.32;100.00;98699.34;5069423;28;20000;-84
2020/12/23 08:16:07;;;;;;;;;;;;;;;10.30;100.00;98690.84;5062949;28;19959;-85
2020/12/23 08:18:32;;;;;;;;;;;;;;;10.33;100.00;98700.19;5062499;28;19927;-85
2020/12/23 08:21:04;;;;;;;;;;;;;;;10.22;100.00;98698.81;5034568;28;19924;-84
2020/12/23 08:23:30;;;;;;;;;;;;;;;10.22;100.00;98703.13;5051407;28;19920;-84
2020/12/23 08:25:55;;;;;;;;;;;;;;;10.22;100.00;98703.97;5052629;28;19927;-84
2020/12/23 08:28:22;;;;;;;;;;;;;;;10.34;100.00;98699.31;5035872;28;20397;-84
2020/12/23 08:30:47;;;;;;;;;;;;;;;10.29;100.00;98696.06;5052715;28;19920;-85
2020/12/23 08:33:13;;;;;;;;;;;;;;;10.57;100.00;98701.06;5036299;28;20285;-87
2020/12/23 08:35:42;;;;;;;;;;;;;;;10.46;100.00;98697.13;5044255;28;19917;-86
2020/12/23 08:38:17;;;;;;;;;;;;;;;10.54;100.00;98683.97;5028596;28;19916;-85
2020/12/23 08:44:05;;;;;;;;;;;;;;;10.46;100.00;98666.22;5072140;28;19919;-85
2020/12/23 08:46:31;;;;;;;;;;;;;;;10.43;100.00;98656.06;5071390;28;20548;-85
2020/12/23 08:48:57;;;;;;;;;;;;;;;10.55;100.00;98648.78;5041889;28;19920;-86
2020/12/23 08:51:22;;;;;;;;;;;;;;;10.62;100.00;98645.88;5058205;28;20333;-85
2020/12/23 08:53:52;;;;;;;;;;;;;;;10.34;100.00;98651.25;5042173;28;19917;-85
2020/12/23 09:02:26;;;;;;;;;;;;;;;10.48;100.00;98648.16;5061422;28;19916;-84
2020/12/23 09:04:51;;;;;;;;;;;;;;;10.55;100.00;98648.78;5042636;28;19920;-85
2020/12/23 09:07:19;;;;;;;;;;;;;;;10.46;100.00;98645.63;5045639;28;19966;-86
2020/12/23 09:09:45;;;;;;;;;;;;;;;10.34;100.00;98630.66;5046000;28;19913;-86
2020/12/23 09:12:22;;;;;;;;;;;;;;;10.23;100.00;98627.59;5060636;28;19920;-85
2020/12/23 09:14:47;;;;;;;;;;;;;;;10.37;100.00;98615.09;5050200;28;19912;-85
2020/12/23 09:17:22;;;;;;;;;;;;;;;10.30;100.00;98608.50;5046101;28;19916;-86
2020/12/23 09:19:48;;;;;;;;;;;;;;;10.25;100.00;98600.91;5053053;28;19944;-87
2020/12/23 09:22:22;;;;;;;;;;;;;;;10.31;100.00;98599.88;5070612;28;20619;-85
2020/12/23 09:24:47;;;;;;;;;;;;;;;10.33;100.00;98602.38;5066961;28;19913;-87
2020/12/23 09:27:20;;;;;;;;;;;;;;;10.32;100.00;98603.28;5057272;28;19916;-85
2020/12/23 09:29:46;;;;;;;;;;;;;;;10.26;100.00;98597.44;5055281;28;19919;-90
2020/12/23 09:32:11;;;;;;;;;;;;;;;10.29;100.00;98591.38;5060080;28;19921;-86
2020/12/23 09:34:38;;;;;;;;;;;;;;;10.39;100.00;98597.84;5050960;28;20007;-86
2020/12/23 09:37:04;;;;;;;;;;;;;;;10.37;100.00;98594.50;5047487;28;19916;-87
2020/12/23 09:39:30;;;;;;;;;;;;;;;10.38;100.00;98591.03;5055738;28;19986;-85
2020/12/23 09:42:02;;;;;;;;;;;;;;;10.41;100.00;98592.66;5069027;28;19959;-86
2020/12/23 09:44:28;;;;;;;;;;;;;;;10.45;100.00;98587.31;5067040;28;19919;-89
2020/12/23 09:46:53;;;;;;;;;;;;;;;10.48;100.00;98591.50;5056666;28;19964;-84
2020/12/23 09:49:19;;;;;;;;;;;;;;;10.65;100.00;98590.84;5055519;28;19923;-89
2020/12/23 09:51:51;;;;;;;;;;;;;;;10.59;100.00;98588.53;5052544;28;19920;-87
2020/12/23 09:54:16;;;;;;;;;;;;;;;10.45;100.00;98587.31;5057097;28;19986;-86
2020/12/23 09:57:04;;;;;;;;;;;;;;;10.54;100.00;98580.16;5051358;28;19943;-84
2020/12/23 09:59:30;;;;;;;;;;;;;;;10.51;100.00;98585.41;5081880;28;19916;-86
2020/12/23 10:01:55;;;;;;;;;;;;;;;10.56;100.00;98583.47;5061104;28;20983;-85
2020/12/23 10:04:21;;;;;;;;;;;;;;;10.58;100.00;98581.69;5057559;28;19924;-85
2020/12/23 10:06:46;;;;;;;;;;;;;;;10.53;100.00;98574.16;5050227;28;20759;-87
2020/12/23 10:09:12;;;;;;;;;;;;;;;10.57;100.00;98562.00;5052141;28;19920;-85
2020/12/23 10:11:38;;;;;;;;;;;;;;;10.59;100.00;98568.78;5049345;28;19932;-85
2020/12/23 10:14:03;;;;;;;;;;;;;;;10.75;100.00;98558.72;5053840;28;19912;-85
2020/12/23 10:16:32;;;;;;;;;;;;;;;10.71;100.00;98561.47;5051839;28;19913;-84
2020/12/23 10:18:58;;;;;;;;;;;;;;;10.88;100.00;98565.03;5051191;28;19928;-85
2020/12/23 10:21:24;;;;;;;;;;;;;;;11.01;100.00;98559.38;5048935;28;19913;-85
2020/12/23 10:23:49;;;;;;;;;;;;;;;11.10;100.00;98561.59;5040613;28;19912;-86
2020/12/23 10:26:15;;;;;;;;;;;;;;;11.31;100.00;98557.28;5040283;28;19912;-87
2020/12/23 10:28:44;;;;;;;;;;;;;;;11.29;100.00;98551.38;5041167;28;20324;-86
2020/12/23 10:31:10;;;;;;;;;;;;;;;11.32;100.00;98558.13;5051651;28;19916;-86
2020/12/23 10:33:37;;;;;;;;;;;;;;;11.34;100.00;98559.75;5047282;28;20758;-86
2020/12/23 10:36:03;;;;;;;;;;;;;;;11.26;100.00;98556.63;5051357;28;19948;-87
2020/12/23 10:38:55;;;;;;;;;;;;;;;11.34;100.00;98546.03;5055359;28;19997;-86
2020/12/23 10:41:20;;;;;;;;;;;;;;;11.35;98.34;98539.94;5066026;28;19962;-86
2020/12/23 10:43:46;;;;;;;;;;;;;;;11.38;99.53;98542.38;5048761;28;20051;-85
2020/12/23 10:46:11;;;;;;;;;;;;;;;11.46;100.00;98540.31;5051913;28;19916;-87
2020/12/23 10:48:37;;;;;;;;;;;;;;;11.39;98.84;98533.75;5053081;28;20290;-87
2020/12/23 10:51:03;;;;;;;;;;;;;;;11.37;100.00;98538.13;5039259;28;19924;-85
2020/12/23 10:53:30;;;;;;;;;;;;;;;11.38;100.00;98538.09;5046919;28;19971;-86
2020/12/23 10:55:55;;;;;;;;;;;;;;;11.36;99.96;98528.72;5045879;28;20370;-86
2020/12/23 10:58:21;;;;;;;;;;;;;;;11.53;100.00;98526.25;5031563;28;19927;-86
2020/12/23 11:00:46;;;;;;;;;;;;;;;11.52;100.00;98515.13;5039356;28;19916;-87
2020/12/23 11:03:12;;;;;;;;;;;;;;;11.43;99.38;98509.53;5049969;28;20408;-86
2020/12/23 11:05:37;;;;;;;;;;;;;;;11.48;100.00;98502.41;5039696;28;20481;-86
2020/12/23 11:08:03;;;;;;;;;;;;;;;11.48;100.00;98485.19;5045157;28;19963;-85
2020/12/23 11:10:28;;;;;;;;;;;;;;;11.29;100.00;98492.91;5037679;28;20386;-86
2020/12/23 11:12:53;;;;;;;;;;;;;;;11.32;100.00;98486.78;5044397;28;19967;-85
2020/12/23 11:15:19;;;;;;;;;;;;;;;11.58;100.00;98482.22;5042130;28;21226;-86
2020/12/23 11:17:45;;;;;;;;;;;;;;;11.49;100.00;98475.72;5034000;28;20294;-86
2020/12/23 11:20:10;;;;;;;;;;;;;;;11.39;100.00;98474.47;5066448;28;19967;-85
2020/12/23 11:22:36;;;;;;;;;;;;;;;11.42;100.00;98469.16;5040806;28;19920;-85
2020/12/23 11:25:03;;;;;;;;;;;;;;;11.46;99.46;98463.81;5045112;28;19954;-85
2020/12/23 11:27:29;;;;;;;;;;;;;;;11.41;100.00;98459.75;5062747;28;19927;-86
2020/12/23 11:29:54;;;;;;;;;;;;;;;11.42;100.00;98461.44;5063848;28;19916;-87
2020/12/23 11:32:20;;;;;;;;;;;;;;;11.28;100.00;98460.28;5065414;28;20441;-86
2020/12/23 11:34:45;;;;;;;;;;;;;;;11.38;100.00;98457.31;5056811;28;20420;-87
2020/12/23 11:37:11;;;;;;;;;;;;;;;11.52;100.00;98463.53;5047766;28;19920;-86
2020/12/23 11:39:36;;;;;;;;;;;;;;;11.46;100.00;98450.06;5051578;28;19999;-85
2020/12/23 11:42:01;;;;;;;;;;;;;;;11.54;99.20;98455.75;5048842;28;20581;-87
2020/12/23 11:44:27;;;;;;;;;;;;;;;11.57;100.00;98450.44;5061743;28;19920;-85
2020/12/23 11:46:52;;;;;;;;;;;;;;;11.55;100.00;98441.94;5061643;28;19920;-86
2020/12/23 11:49:17;;;;;;;;;;;;;;;11.44;99.33;98434.66;5060348;28;20800;-85
2020/12/23 11:51:45;;;;;;;;;;;;;;;11.38;100.00;98434.97;5045465;28;19924;-84
2020/12/23 11:54:12;;;;;;;;;;;;;;;11.40;99.58;98427.97;5062716;28;19920;-86
2020/12/23 11:56:37;;;;;;;;;;;;;;;11.41;99.74;98423.66;5048007;28;20293;-87
2020/12/23 11:59:04;;;;;;;;;;;;;;;11.44;100.00;98423.53;5048375;28;19920;-86
2020/12/23 12:01:29;;;;;;;;;;;;;;;11.49;99.13;98429.31;5063528;28;20446;-85
2020/12/23 12:03:55;;;;;;;;;;;;;;;11.55;99.60;98423.88;5078123;28;19956;-85
2020/12/23 12:06:22;;;;;;;;;;;;;;;11.53;98.84;98417.94;5058029;28;20128;-85
2020/12/23 12:08:47;;;;;;;;;;;;;;;11.60;98.73;98408.19;5064318;28;19916;-85
2020/12/23 12:11:16;;;;;;;;;;;;;;;11.49;100.00;98406.97;5049679;28;19955;-85
2020/12/23 12:13:41;;;;;;;;;;;;;;;11.43;99.64;98398.66;5058244;28;19949;-85
2020/12/23 12:16:07;;;;;;;;;;;;;;;11.49;99.03;98396.66;5052007;28;19919;-84
2020/12/23 12:18:32;;;;;;;;;;;;;;;11.47;99.49;98384.69;5054757;28;19935;-84
2020/12/23 12:20:58;;;;;;;;;;;;;;;11.39;99.42;98389.38;5070903;28;19934;-85
2020/12/23 12:23:23;;;;;;;;;;;;;;;11.35;100.00;98387.84;5054350;28;20663;-85
2020/12/23 12:25:48;;;;;;;;;;;;;;;11.37;99.01;98380.88;5062774;28;19912;-84
2020/12/23 12:28:14;;;;;;;;;;;;;;;11.27;99.84;98376.16;5063421;28;20292;-85
2020/12/23 12:30:39;;;;;;;;;;;;;;;11.35;99.24;98375.78;5074212;28;20676;-86
2020/12/23 12:33:05;;;;;;;;;;;;;;;11.23;99.16;98371.19;5062999;28;20429;-84
2020/12/23 12:35:30;;;;;;;;;;;;;;;11.33;99.57;98371.59;5055778;28;19939;-84
2020/12/23 12:37:56;;;;;;;;;;;;;;;11.36;99.13;98368.88;5055598;28;19931;-85
2020/12/23 12:40:21;;;;;;;;;;;;;;;11.32;99.15;98365.63;5049488;28;20585;-87
2020/12/23 12:42:46;;;;;;;;;;;;;;;11.39;100.00;98369.59;5060424;28;19970;-85
2020/12/23 12:45:12;;;;;;;;;;;;;;;11.20;100.00;98359.28;5051847;28;19920;-88